New Lisbon, New Jersey
Current Conditions -  °F | °C
As of 4:58 PM on Tuesday 21 Oct 2014 (Local Time) from KWRI Reporting Station
Few Clouds Few Clouds  
Wind Chill: 66°   Ceiling: Unl
Heat Index: 66°   Visibility: 10mi
Dew Point: 51°   Wind: 1mph
Humidity: 58%   Direction: 360°N
Pressure: 29.79"   Gusts: NA
Location:  39.96°N, 74.63°W
Report Text: KWRI 212058Z AUTO 36001KT 10SM FEW047 19/11 A2979 RMK AO2 SLP091 T01890105 56003
Loading
Personal Weather Stations






























Interactive Weather Map
Tropical Storm Tracking
New forecast layout! Learn more

10-Day Weather Forecast

Advertisements
Track Severe Weather on mobile